.
WxDataArchive / Data Records for 2014-03-07
2014-03-06 March 2014 2014-03-08

Data Records for Friday, 07 March 2014

Time	Temp	Chill	HIndex	Humid	Dewpt	 Wind 	HiWind	WindDir	Rain 	Barom
-----	----	-----	------	-----	-----	------	------	-------	-----	-----
00:00	14.9	14.9	14.9	81	10.1	0	0	---	0.00	30.165 
00:05	14.9	14.9	14.9	81	10.1	0	0	---	0.00	30.165 
00:10	14.9	14.9	14.9	81	10.1	0	1	90	0.00	30.165 
00:15	14.9	14.9	14.9	81	10.1	0	0	---	0.00	30.158 
00:20	14.8	14.8	14.8	80	9.8	0	0	---	0.00	30.158 
00:25	14.4	14.4	14.4	80	9.4	0	0	---	0.00	30.158 
00:30	14.3	14.3	14.3	80	9.3	0	0	---	0.00	30.148 
00:35	14.0	14.0	14.0	80	9.0	0	0	---	0.00	30.148 
00:40	13.8	13.8	13.8	80	8.8	0	0	---	0.00	30.148 
00:45	13.5	13.5	13.5	80	8.5	0	0	---	0.00	30.148 
00:50	13.3	13.3	13.3	81	8.6	0	0	---	0.00	30.148 
00:55	12.9	12.9	12.9	81	8.2	0	0	---	0.00	30.148 
01:00	12.8	12.8	12.8	81	8.1	0	0	---	0.00	30.146 
01:05	12.6	12.6	12.6	81	7.9	0	0	---	0.00	30.146 
01:10	12.4	12.4	12.4	81	7.7	0	0	---	0.00	30.146 
01:15	12.3	12.3	12.3	81	7.6	0	0	---	0.00	30.145 
01:20	12.1	12.1	12.1	81	7.4	0	0	---	0.00	30.145 
01:25	11.9	11.9	11.9	81	7.2	0	0	---	0.00	30.145 
01:30	11.7	11.7	11.7	82	7.3	0	0	---	0.00	30.137 
01:35	11.9	11.9	11.9	83	7.8	0	0	---	0.00	30.137 
01:40	12.3	12.3	12.3	83	8.1	0	0	---	0.00	30.137 
01:45	12.4	12.4	12.4	84	8.5	0	0	---	0.00	30.134 
01:50	12.6	12.6	12.6	84	8.7	0	0	---	0.00	30.134 
01:55	12.6	12.6	12.6	84	8.7	0	0	---	0.00	30.134 
02:00	12.4	12.4	12.4	84	8.5	0	0	---	0.00	30.136 
02:05	12.4	12.4	12.4	84	8.5	0	0	---	0.00	30.136 
02:10	12.3	12.3	12.3	84	8.4	0	0	---	0.00	30.136 
02:15	12.1	12.1	12.1	84	8.2	0	0	---	0.00	30.131 
02:20	11.7	11.7	11.7	84	7.8	0	0	---	0.00	30.131 
02:25	11.6	11.6	11.6	84	7.7	0	0	---	0.00	30.131 
02:30	11.4	11.4	11.4	84	7.5	0	0	---	0.00	30.127 
02:35	11.1	11.1	11.1	84	7.2	0	0	---	0.00	30.127 
02:40	10.9	10.9	10.9	84	7.0	0	0	---	0.00	30.127 
02:45	10.9	10.9	10.9	84	7.0	0	0	---	0.00	30.119 
02:50	11.1	11.1	11.1	84	7.2	0	0	---	0.00	30.119 
02:55	11.2	11.2	11.2	84	7.3	0	0	---	0.00	30.119 
03:00	11.1	11.1	11.1	84	7.2	0	0	---	0.00	30.112 
03:05	11.1	11.1	11.1	84	7.2	0	0	---	0.00	30.112 
03:10	11.1	11.1	11.1	85	7.5	0	0	---	0.00	30.112 
03:15	11.4	11.4	11.4	86	8.0	0	0	---	0.00	30.104 
03:20	11.6	11.6	11.6	86	8.2	0	0	---	0.00	30.104 
03:25	11.7	11.7	11.7	86	8.3	0	0	---	0.00	30.104 
03:30	11.7	11.7	11.7	86	8.3	0	0	---	0.00	30.097 
03:35	11.7	11.7	11.7	86	8.3	0	0	---	0.00	30.097 
03:40	11.6	11.6	11.6	86	8.2	0	0	---	0.00	30.097 
03:45	11.4	11.4	11.4	86	8.0	0	0	---	0.00	30.101 
03:50	11.2	11.2	11.2	85	7.6	0	0	---	0.00	30.101 
03:55	11.1	11.1	11.1	85	7.5	0	0	---	0.00	30.101 
04:00	11.1	11.1	11.1	85	7.5	0	0	---	0.00	30.101 
04:05	10.9	10.9	10.9	85	7.3	0	0	---	0.00	30.101 
04:10	10.9	10.9	10.9	85	7.3	0	0	---	0.00	30.101 
04:15	10.7	10.7	10.7	85	7.1	0	0	---	0.00	30.098 
04:20	10.5	10.5	10.5	85	6.9	0	0	---	0.00	30.098 
04:25	10.4	10.4	10.4	85	6.8	0	0	---	0.00	30.098 
04:30	10.4	10.4	10.4	85	6.8	0	0	---	0.00	30.112 
04:35	10.2	10.2	10.2	85	6.6	0	0	---	0.00	30.112 
04:40	10.0	10.0	10.0	85	6.4	0	0	---	0.00	30.112 
04:45	9.9	9.9	9.9	85	6.3	0	0	---	0.00	30.102 
04:50	9.9	9.9	9.9	85	6.3	0	0	---	0.00	30.102 
04:55	9.7	9.7	9.7	85	6.1	0	0	---	0.00	30.102 
05:00	9.5	9.5	9.5	85	5.9	0	0	---	0.00	30.102 
05:05	9.3	9.3	9.3	85	5.7	0	0	---	0.00	30.102 
05:10	9.2	9.2	9.2	85	5.6	0	0	---	0.00	30.102 
05:15	9.0	9.0	9.0	85	5.4	0	0	---	0.00	30.102 
05:20	9.0	9.0	9.0	85	5.4	0	0	---	0.00	30.102 
05:25	9.0	9.0	9.0	85	5.4	0	0	---	0.00	30.102 
05:30	8.8	8.8	8.8	85	5.2	0	0	---	0.00	30.094 
05:35	8.8	8.8	8.8	85	5.2	0	0	---	0.00	30.094 
05:40	8.8	8.8	8.8	85	5.2	0	0	---	0.00	30.094 
05:45	9.0	9.0	9.0	85	5.4	0	0	---	0.00	30.102 
05:50	9.0	9.0	9.0	85	5.4	0	0	---	0.00	30.102 
05:55	9.0	9.0	9.0	85	5.4	0	0	---	0.00	30.102 
06:00	9.0	9.0	9.0	85	5.4	0	0	---	0.00	30.100 
06:05	8.8	8.8	8.8	85	5.2	0	0	---	0.00	30.100 
06:10	8.8	8.8	8.8	85	5.2	0	0	---	0.00	30.100 
06:15	8.6	8.6	8.6	85	5.0	0	0	---	0.00	30.100 
06:20	8.6	8.6	8.6	85	5.0	0	0	---	0.00	30.100 
06:25	8.8	8.8	8.8	85	5.2	0	0	---	0.00	30.100 
06:30	8.6	8.6	8.6	85	5.0	0	0	---	0.00	30.093 
06:35	8.4	8.4	8.4	85	4.8	0	0	---	0.00	30.093 
06:40	8.3	8.3	8.3	85	4.7	0	0	---	0.00	30.093 
06:45	8.1	8.1	8.1	85	4.5	0	0	---	0.00	30.088 
06:50	8.1	8.1	8.1	85	4.5	0	0	---	0.00	30.088 
06:55	8.1	8.1	8.1	85	4.5	0	0	---	0.00	30.088 
07:00	7.9	7.9	7.9	85	4.3	0	0	---	0.00	30.098 
07:05	7.9	7.9	7.9	85	4.3	0	0	---	0.00	30.098 
07:10	7.9	7.9	7.9	85	4.3	0	0	---	0.00	30.098 
07:15	8.1	8.1	8.1	85	4.5	0	0	---	0.00	30.105 
07:20	8.3	8.3	8.3	85	4.7	0	0	---	0.00	30.105 
07:25	8.4	8.4	8.4	85	4.8	0	0	---	0.00	30.105 
07:30	8.8	8.8	8.8	85	5.2	0	0	---	0.00	30.102 
07:35	9.2	9.2	9.2	85	5.6	0	0	---	0.00	30.102 
07:40	9.5	9.5	9.5	85	5.9	0	0	---	0.00	30.102 
07:45	10.0	10.0	10.0	86	6.7	0	0	---	0.00	30.100 
07:50	10.5	10.5	10.5	86	7.2	0	0	---	0.00	30.100 
07:55	11.1	11.1	11.1	86	7.7	0	0	---	0.00	30.100 
08:00	11.7	11.7	11.7	86	8.3	0	0	---	0.00	30.111 
08:05	12.6	12.6	12.6	87	9.5	0	2	90	0.00	30.111 
08:10	13.5	13.5	13.5	87	10.4	0	2	90	0.00	30.111 
08:15	14.1	14.1	14.1	86	10.7	0	1	90	0.00	30.100 
08:20	14.8	14.8	14.8	86	11.4	1	3	90	0.00	30.100 
08:25	14.8	14.8	14.8	85	11.1	1	3	90	0.00	30.100 
08:30	15.1	15.1	15.1	85	11.4	1	3	90	0.00	30.102 
08:35	15.4	15.4	15.4	85	11.7	1	3	90	0.00	30.102 
08:40	15.7	15.7	15.7	84	11.7	2	4	90	0.00	30.102 
08:45	15.9	15.9	15.9	84	11.9	2	4	90	0.00	30.106 
08:50	16.1	16.1	16.1	84	12.1	1	4	90	0.00	30.106 
08:55	16.5	16.5	16.5	84	12.5	0	2	90	0.00	30.106 
09:00	17.0	17.0	17.0	83	12.7	1	4	90	0.00	30.114 
09:05	17.5	17.5	17.5	82	13.0	0	2	90	0.00	30.114 
09:10	18.0	18.0	18.0	81	13.2	0	2	90	0.00	30.114 
09:15	18.9	18.9	18.9	81	14.1	0	1	90	0.00	30.113 
09:20	19.5	19.5	19.5	79	14.1	0	2	90	0.00	30.113 
09:25	20.5	20.5	20.5	77	14.5	0	2	90	0.00	30.113 
09:30	21.3	21.3	21.3	77	15.2	0	2	90	0.00	30.109 
09:35	22.2	22.2	22.2	75	15.5	0	1	90	0.00	30.109 
09:40	23.5	23.5	23.5	71	15.5	0	2	90	0.00	30.109 
09:45	23.8	23.8	23.8	71	15.8	1	3	90	0.00	30.099 
09:50	24.2	24.2	24.2	69	15.5	1	3	90	0.00	30.099 
09:55	24.5	24.5	24.5	69	15.8	0	2	90	0.00	30.099 
10:00	25.3	25.3	25.3	68	16.2	0	2	90	0.00	30.092 
10:05	26.3	26.3	26.3	65	16.2	0	2	90	0.00	30.092 
10:10	26.9	26.9	26.9	62	15.6	0	2	90	0.00	30.092 
10:15	26.7	26.7	26.7	64	16.2	1	3	90	0.00	30.092 
10:20	26.6	26.6	26.6	64	16.1	0	3	90	0.00	30.092 
10:25	27.2	27.2	27.2	64	16.7	0	1	90	0.00	30.092 
10:30	27.3	27.3	27.3	64	16.8	1	3	90	0.00	30.081 
10:35	27.6	27.6	27.6	62	16.3	1	3	90	0.00	30.081 
10:40	27.6	27.6	27.6	63	16.7	1	3	90	0.00	30.081 
10:45	27.8	27.8	27.8	64	17.2	1	2	90	0.00	30.079 
10:50	28.8	28.8	28.8	62	17.4	0	2	90	0.00	30.079 
10:55	30.1	30.1	30.1	62	18.7	0	1	90	0.00	30.079 
11:00	31.3	31.3	31.3	59	18.7	0	2	90	0.00	30.082 
11:05	32.1	32.1	32.1	58	19.0	0	2	90	0.00	30.082 
11:10	33.2	33.2	33.2	58	20.0	0	1	90	0.00	30.082 
11:15	34.6	34.6	34.6	56	20.5	0	0	---	0.00	30.074 
11:20	35.5	35.5	35.5	54	20.5	0	1	90	0.00	30.074 
11:25	36.0	36.0	36.0	54	21.0	0	0	---	0.00	30.074 
11:30	37.2	37.2	37.2	51	20.8	0	0	---	0.00	30.066 
11:35	38.0	38.0	38.0	51	21.5	0	1	90	0.00	30.066 
11:40	38.6	38.6	38.6	50	21.6	0	1	90	0.00	30.066 
11:45	38.0	38.0	38.0	50	21.0	0	2	90	0.00	30.064 
11:50	37.8	37.8	37.8	53	22.2	1	3	90	0.00	30.064 
11:55	37.3	37.3	37.3	54	22.2	1	3	90	0.00	30.064 
12:00	37.6	37.6	37.6	54	22.5	1	2	90	0.00	30.055 
12:05	38.2	38.2	38.2	52	22.1	1	3	90	0.00	30.055 
12:10	37.9	37.9	37.9	52	21.9	1	4	90	0.00	30.055 
12:15	37.2	37.2	37.2	53	21.7	2	3	90	0.01	30.056 
12:20	36.8	36.8	36.8	54	21.7	1	3	90	0.00	30.056 
12:25	37.3	37.3	37.3	54	22.2	1	2	90	0.00	30.056 
12:30	38.2	38.2	38.2	53	22.6	1	2	90	0.00	30.045 
12:35	38.9	38.9	38.9	52	22.8	0	2	90	0.00	30.045 
12:40	39.6	39.6	39.6	52	23.4	0	3	90	0.00	30.045 
12:45	39.8	39.8	39.8	52	23.6	1	4	90	0.00	30.037 
12:50	39.5	39.5	39.5	52	23.3	2	3	90	0.00	30.037 
12:55	39.6	39.6	39.6	53	23.9	0	2	90	0.00	30.037 
13:00	40.3	40.3	40.3	52	24.1	1	4	90	0.00	30.031 
13:05	40.8	40.8	40.8	52	24.6	0	3	90	0.00	30.031 
13:10	41.3	41.3	41.3	51	24.6	1	4	90	0.00	30.031 
13:15	41.9	41.9	41.9	50	24.6	1	3	90	0.00	30.020 
13:20	43.1	43.1	43.1	49	25.3	0	2	90	0.00	30.020 
13:25	43.9	43.9	43.9	47	25.0	0	2	90	0.00	30.020 
13:30	44.3	44.3	44.3	47	25.4	0	3	90	0.00	30.013 
13:35	44.3	44.3	44.3	47	25.4	1	3	90	0.00	30.013 
13:40	43.1	43.1	43.1	50	25.7	2	4	90	0.00	30.013 
13:45	42.1	42.1	42.1	52	25.8	1	4	90	0.00	30.000 
13:50	41.9	41.9	41.9	51	25.1	0	2	90	0.00	30.000 
13:55	41.9	41.9	41.9	51	25.1	2	3	90	0.00	30.000 
14:00	42.3	42.3	42.3	49	24.5	2	6	90	0.00	29.987 
14:05	43.2	43.2	43.2	47	24.3	1	2	90	0.00	29.987 
14:10	44.1	44.1	44.1	45	24.1	0	3	90	0.00	29.987 
14:15	44.6	44.6	44.6	46	25.1	0	3	90	0.00	29.983 
14:20	45.1	45.1	45.1	44	24.5	1	2	90	0.00	29.983 
14:25	45.5	45.5	45.5	43	24.3	0	2	90	0.00	29.983 
14:30	46.1	46.1	46.1	43	24.9	0	1	90	0.00	29.981 
14:35	46.1	46.1	46.1	43	24.9	0	1	90	0.00	29.981 
14:40	46.1	46.1	46.1	43	24.9	0	1	90	0.00	29.981 
14:45	46.1	46.1	46.1	45	26.0	0	1	90	0.00	29.979 
14:50	46.0	46.0	46.0	43	24.8	0	2	90	0.00	29.979 
14:55	45.8	45.8	45.8	46	26.2	0	2	90	0.00	29.979 
15:00	45.5	45.5	45.5	47	26.5	0	2	90	0.00	29.982 
15:05	45.7	45.7	45.7	45	25.6	0	3	90	0.00	29.982 
15:10	46.5	46.5	46.5	42	24.7	1	2	90	0.00	29.982 
15:15	47.4	47.4	47.4	38	23.1	1	3	90	0.00	29.981 
15:20	47.9	47.9	47.9	38	23.5	1	3	315	0.00	29.981 
15:25	48.0	48.0	48.0	38	23.6	0	2	292	0.00	29.981 
15:30	48.0	48.0	48.0	38	23.6	0	2	292	0.00	29.979 
15:35	48.3	48.3	48.3	37	23.3	1	3	270	0.00	29.979 
15:40	48.3	48.3	48.3	39	24.5	0	1	270	0.00	29.979 
15:45	48.0	48.0	48.0	39	24.2	0	2	270	0.00	29.973 
15:50	47.6	47.6	47.6	39	23.9	1	3	270	0.00	29.973 
15:55	47.0	47.0	47.0	42	25.1	0	1	248	0.00	29.973 
16:00	46.4	46.4	46.4	42	24.6	0	3	248	0.00	29.971 
16:05	46.2	46.2	46.2	43	25.0	0	1	248	0.00	29.971 
16:10	46.2	46.2	46.2	42	24.4	0	1	248	0.00	29.971 
16:15	46.2	46.2	46.2	41	23.8	0	2	248	0.00	29.967 
16:20	46.5	46.5	46.5	42	24.7	0	2	248	0.00	29.967 
16:25	46.5	46.5	46.5	43	25.2	0	2	248	0.00	29.967 
16:30	46.4	46.4	46.4	44	25.7	0	2	248	0.00	29.966 
16:35	46.2	46.2	46.2	44	25.5	0	2	248	0.00	29.966 
16:40	46.4	46.4	46.4	43	25.1	1	3	248	0.00	29.966 
16:45	46.5	46.5	46.5	44	25.8	0	3	248	0.00	29.959 
16:50	46.5	46.5	46.5	44	25.8	1	2	248	0.00	29.959 
16:55	46.8	46.8	46.8	43	25.5	1	4	248	0.00	29.959 
17:00	46.7	46.7	46.7	43	25.4	0	3	248	0.00	29.955 
17:05	46.7	46.7	46.7	45	26.5	0	2	248	0.00	29.955 
17:10	46.5	46.5	46.5	46	26.8	1	2	248	0.00	29.955 
17:15	46.1	46.1	46.1	46	26.5	0	1	248	0.00	29.952 
17:20	46.0	46.0	46.0	47	26.9	0	2	248	0.00	29.952 
17:25	45.8	45.8	45.8	47	26.7	0	2	248	0.00	29.952 
17:30	45.5	45.5	45.5	48	27.0	0	1	248	0.00	29.952 
17:35	45.2	45.2	45.2	50	27.7	0	1	248	0.00	29.952 
17:40	44.8	44.8	44.8	50	27.3	0	0	---	0.00	29.952 
17:45	44.6	44.6	44.6	50	27.1	0	0	---	0.00	29.956 
17:50	44.5	44.5	44.5	51	27.5	0	0	---	0.00	29.956 
17:55	44.3	44.3	44.3	51	27.3	0	1	248	0.00	29.956 
18:00	44.2	44.2	44.2	52	27.7	0	0	---	0.00	29.956 
18:05	43.8	43.8	43.8	53	27.8	0	0	---	0.00	29.956 
18:10	43.3	43.3	43.3	54	27.8	0	0	---	0.00	29.956 
18:15	43.1	43.1	43.1	54	27.6	0	0	---	0.00	29.958 
18:20	42.6	42.6	42.6	55	27.6	0	0	---	0.00	29.958 
18:25	42.3	42.3	42.3	57	28.2	0	0	---	0.00	29.958 
18:30	41.9	41.9	41.9	57	27.8	0	0	---	0.00	29.958 
18:35	41.6	41.6	41.6	58	27.9	0	0	---	0.00	29.958 
18:40	41.2	41.2	41.2	60	28.4	0	0	---	0.00	29.958 
18:45	40.8	40.8	40.8	60	28.0	0	0	---	0.00	29.961 
18:50	40.3	40.3	40.3	61	27.9	0	0	---	0.00	29.961 
18:55	40.1	40.1	40.1	62	28.1	0	0	---	0.00	29.961 
19:00	39.6	39.6	39.6	62	27.7	0	0	---	0.00	29.959 
19:05	39.3	39.3	39.3	63	27.8	0	0	---	0.00	29.959 
19:10	38.9	38.9	38.9	63	27.4	0	0	---	0.00	29.959 
19:15	38.6	38.6	38.6	64	27.5	0	0	---	0.00	29.957 
19:20	38.3	38.3	38.3	65	27.6	0	0	---	0.00	29.957 
19:25	38.0	38.0	38.0	65	27.3	0	0	---	0.00	29.957 
19:30	37.8	37.8	37.8	65	27.1	0	0	---	0.00	29.957 
19:35	37.5	37.5	37.5	66	27.2	0	0	---	0.00	29.957 
19:40	37.2	37.2	37.2	67	27.3	0	0	---	0.00	29.957 
19:45	36.9	36.9	36.9	70	28.0	0	0	---	0.00	29.962 
19:50	36.6	36.6	36.6	71	28.1	0	0	---	0.00	29.962 
19:55	36.5	36.5	36.5	72	28.3	0	0	---	0.00	29.962 
20:00	36.2	36.2	36.2	72	28.1	0	0	---	0.00	29.961 
20:05	35.9	35.9	35.9	72	27.8	0	0	---	0.00	29.961 
20:10	35.6	35.6	35.6	72	27.5	0	0	---	0.00	29.961 
20:15	35.3	35.3	35.3	73	27.5	0	0	---	0.00	29.965 
20:20	35.2	35.2	35.2	73	27.4	0	0	---	0.00	29.965 
20:25	34.9	34.9	34.9	74	27.5	0	0	---	0.00	29.965 
20:30	34.6	34.6	34.6	74	27.2	0	0	---	0.00	29.968 
20:35	34.3	34.3	34.3	74	26.9	0	0	---	0.00	29.968 
20:40	34.0	34.0	34.0	75	26.9	0	0	---	0.00	29.968 
20:45	33.8	33.8	33.8	77	27.4	0	0	---	0.00	29.970 
20:50	33.5	33.5	33.5	77	27.1	0	0	---	0.00	29.970 
20:55	33.4	33.4	33.4	77	27.0	0	0	---	0.00	29.970 
21:00	33.2	33.2	33.2	78	27.1	0	0	---	0.00	29.973 
21:05	33.1	33.1	33.1	78	27.0	0	0	---	0.00	29.973 
21:10	32.9	32.9	32.9	78	26.8	0	0	---	0.00	29.973 
21:15	32.7	32.7	32.7	78	26.6	0	0	---	0.00	29.964 
21:20	32.5	32.5	32.5	79	26.7	0	0	---	0.00	29.964 
21:25	32.2	32.2	32.2	79	26.4	0	0	---	0.00	29.964 
21:30	32.1	32.1	32.1	80	26.6	0	0	---	0.00	29.965 
21:35	31.9	31.9	31.9	81	26.7	0	0	---	0.00	29.965 
21:40	32.1	32.1	32.1	81	26.9	0	0	---	0.00	29.965 
21:45	31.9	31.9	31.9	81	26.7	0	0	---	0.00	29.968 
21:50	31.8	31.8	31.8	81	26.6	0	0	---	0.00	29.968 
21:55	31.6	31.6	31.6	81	26.5	0	0	---	0.00	29.968 
22:00	31.6	31.6	31.6	82	26.7	0	0	---	0.00	29.967 
22:05	31.5	31.5	31.5	82	26.7	0	0	---	0.00	29.967 
22:10	31.5	31.5	31.5	83	26.9	0	0	---	0.00	29.967 
22:15	31.6	31.6	31.6	83	27.0	0	1	248	0.00	29.947 
22:20	31.8	31.8	31.8	83	27.2	0	0	---	0.00	29.947 
22:25	31.8	31.8	31.8	83	27.2	0	0	---	0.00	29.947 
22:30	31.8	31.8	31.8	83	27.2	0	0	---	0.00	29.946 
22:35	31.9	31.9	31.9	84	27.6	0	0	---	0.00	29.946 
22:40	32.2	32.2	32.2	83	27.6	0	1	248	0.00	29.946 
22:45	32.4	32.4	32.4	83	27.8	0	1	248	0.00	29.948 
22:50	32.8	32.8	32.8	83	28.2	0	1	248	0.00	29.948 
22:55	32.9	32.9	32.9	82	28.0	0	0	---	0.00	29.948 
23:00	32.9	32.9	32.9	82	28.0	0	0	---	0.00	29.953 
23:05	33.1	33.1	33.1	82	28.2	0	0	---	0.00	29.953 
23:10	32.9	32.9	32.9	81	27.7	0	0	---	0.00	29.953 
23:15	32.8	32.8	32.8	81	27.6	0	0	---	0.00	29.948 
23:20	32.5	32.5	32.5	81	27.3	0	0	---	0.00	29.948 
23:25	32.4	32.4	32.4	81	27.2	0	0	---	0.00	29.948 
23:30	32.4	32.4	32.4	81	27.2	0	0	---	0.00	29.948 
23:35	32.2	32.2	32.2	82	27.3	0	0	---	0.00	29.948 
23:40	32.2	32.2	32.2	82	27.3	0	0	---	0.00	29.948 
23:45	32.2	32.2	32.2	82	27.3	0	0	---	0.00	29.946 
23:50	32.2	32.2	32.2	82	27.3	0	0	---	0.00	29.946 
23:55	32.2	32.2	32.2	83	27.6	0	0	---	0.00	29.946 

CoCoRaHS
IN-AL-39
A2 Web Hosting
Creative Commons License
GoDaddy
search engine by freefind advanced

loaded 2018-11-20 14:52:52 • last modified 2010-11-18 10:43:29
Privacy PolicyDisclaimer
• wx.awcolley.com is powered by PmWiki v.2002016 •
• all content (unless otherwise noted) © 2018 A W Colley